Time;durP1;ratioP1;P1;durP2;ratioP2;P2;SDS_P1;SDS_P2;PMS_P1;PMS_P2;Temp;Humidity;BMP_temperature;BMP_pressure;BME280_temperature;BME280_humidity;BME280_pressure;Samples;Min_cycle;Max_cycle;Signal;HPM_P1;HPM_P2
2021/11/14 00:01:02;;;;;;;19.42;5.78;;;;;;;10.97;91.13;101707.94;5046268;28;20040;-39
2021/11/14 00:03:27;;;;;;;22.00;5.88;;;;;;;11.02;90.55;101704.75;5035084;28;20029;-39
2021/11/14 00:05:53;;;;;;;22.92;6.00;;;;;;;11.00;90.25;101707.59;5035140;28;20037;-40
2021/11/14 00:08:20;;;;;;;16.52;5.68;;;;;;;10.93;90.37;101707.44;5048538;28;20039;-39
2021/11/14 00:10:48;;;;;;;28.13;6.47;;;;;;;10.88;90.78;101703.53;5052975;28;20395;-39
2021/11/14 00:13:13;;;;;;;;;;;;;;;10.84;91.12;101710.25;5054653;28;20361;-39
2021/11/14 00:15:39;;;;;;;19.85;6.25;;;;;;;10.83;91.77;101704.03;5054943;28;19955;-40
2021/11/14 00:18:05;;;;;;;27.45;7.13;;;;;;;10.83;91.69;101714.78;5042675;28;20484;-39
2021/11/14 00:20:31;;;;;;;18.98;5.90;;;;;;;10.86;91.31;101711.78;5034842;28;20039;-39
2021/11/14 00:22:56;;;;;;;15.68;5.57;;;;;;;10.84;91.16;101712.94;5034749;28;20030;-40
2021/11/14 00:25:22;;;;;;;27.05;6.53;;;;;;;10.85;91.27;101718.19;5051086;28;20036;-40
2021/11/14 00:27:48;;;;;;;16.58;6.10;;;;;;;10.89;90.85;101716.00;5041167;28;20049;-39
2021/11/14 00:30:14;;;;;;;28.25;6.30;;;;;;;10.89;90.84;101721.38;5034745;28;20022;-39
2021/11/14 00:32:39;;;;;;;19.58;6.05;;;;;;;10.88;91.01;101720.53;5033300;28;20033;-40
2021/11/14 00:35:06;;;;;;;25.10;6.97;;;;;;;10.94;90.51;101722.56;5034745;28;20319;-39
2021/11/14 00:37:35;;;;;;;23.42;5.82;;;;;;;10.96;90.15;101727.81;5044332;28;20036;-40
2021/11/14 00:40:01;;;;;;;16.60;5.28;;;;;;;11.00;89.67;101729.16;5054394;28;20456;-41
2021/11/14 00:42:26;;;;;;;19.63;5.80;;;;;;;10.98;89.41;101732.03;5042929;28;20037;-39
2021/11/14 00:44:52;;;;;;;21.75;6.13;;;;;;;10.97;89.53;101734.88;5033145;28;20109;-40
2021/11/14 00:47:17;;;;;;;13.65;5.65;;;;;;;10.91;89.73;101735.53;5041149;28;20082;-40
2021/11/14 00:49:43;;;;;;;18.40;7.13;;;;;;;10.90;90.09;101733.81;5053047;28;20071;-39
2021/11/14 00:52:09;;;;;;;18.77;6.97;;;;;;;10.85;90.22;101733.47;5054135;28;20171;-39
2021/11/14 00:54:34;;;;;;;18.48;6.25;;;;;;;10.82;90.66;101733.78;5042504;28;20120;-40
2021/11/14 00:56:59;;;;;;;16.10;6.53;;;;;;;10.83;90.84;101733.66;5042781;28;20032;-39
2021/11/14 00:59:25;;;;;;;20.00;6.38;;;;;;;10.87;90.52;101734.16;5053999;28;20491;-40
2021/11/14 01:01:51;;;;;;;14.45;6.18;;;;;;;10.89;90.16;101732.16;5039360;28;20065;-40
2021/11/14 01:04:16;;;;;;;27.58;6.75;;;;;;;10.85;90.31;101728.06;5034010;28;20060;-39
2021/11/14 01:06:41;;;;;;;20.67;6.70;;;;;;;10.80;90.40;101733.13;5054956;28;20031;-40
2021/11/14 01:09:07;;;;;;;24.60;7.22;;;;;;;10.76;90.65;101736.13;5037284;28;20416;-39
2021/11/14 01:11:32;;;;;;;28.40;7.20;;;;;;;10.77;90.82;101740.53;5040265;28;20464;-41
2021/11/14 01:13:57;;;;;;;21.17;7.05;;;;;;;10.75;90.78;101741.69;5053546;28;20082;-40
2021/11/14 01:16:24;;;;;;;19.80;6.80;;;;;;;10.72;90.74;101740.16;5053276;28;20025;-40
2021/11/14 01:18:50;;;;;;;18.40;7.13;;;;;;;10.69;91.13;101743.19;5053516;28;20025;-40
2021/11/14 01:21:19;;;;;;;24.00;7.32;;;;;;;10.67;91.41;101753.25;5053562;28;20188;-41
2021/11/14 01:23:47;;;;;;;30.70;8.00;;;;;;;10.64;91.52;101758.97;5050118;28;20079;-40
2021/11/14 01:26:12;;;;;;;;;;;;;;;10.64;91.81;101756.28;5037905;28;20045;-40
2021/11/14 01:28:37;;;;;;;14.98;7.05;;;;;;;10.64;91.82;101761.66;5053403;28;19913;-39
2021/11/14 01:31:03;;;;;;;19.27;6.95;;;;;;;10.67;91.80;101764.03;5053360;28;20472;-40
2021/11/14 01:33:29;;;;;;;18.98;6.95;;;;;;;10.68;91.49;101770.25;5053388;28;20028;-40
2021/11/14 01:35:56;;;;;;;21.58;6.82;;;;;;;10.66;91.44;101764.19;5050403;28;20023;-41
2021/11/14 01:38:22;;;;;;;20.60;7.78;;;;;;;10.65;91.83;101770.56;5053053;28;20067;-39
2021/11/14 01:40:53;;;;;;;22.67;7.72;;;;;;;10.63;91.89;101769.88;5050524;28;20121;-40
2021/11/14 01:43:25;;;;;;;20.73;7.38;;;;;;;10.63;92.08;101764.50;5033359;28;20447;-39
2021/11/14 01:45:51;;;;;;;23.63;8.32;;;;;;;10.62;92.42;101769.03;5036171;28;20396;-39
2021/11/14 01:48:16;;;;;;;21.50;7.93;;;;;;;10.63;92.47;101776.09;5053066;28;20104;-39
2021/11/14 01:50:42;;;;;;;23.98;7.68;;;;;;;10.67;92.17;101782.03;5052910;28;20053;-39
2021/11/14 01:53:08;;;;;;;24.88;8.20;;;;;;;10.64;91.97;101782.34;5049856;28;20041;-40
2021/11/14 01:55:35;;;;;;;26.00;8.15;;;;;;;10.62;92.23;101776.28;5032961;28;20108;-39
2021/11/14 01:58:01;;;;;;;17.67;7.95;;;;;;;10.64;92.26;101777.81;5048544;28;20040;-39
2021/11/14 02:00:45;;;;;;;18.58;8.27;;;;;;;10.66;92.07;101786.56;5048760;28;20037;-39
2021/11/14 02:03:10;;;;;;;20.73;9.05;;;;;;;10.62;92.05;101779.81;5033004;28;20469;-39
2021/11/14 02:05:36;;;;;;;25.48;9.00;;;;;;;10.61;92.16;101780.81;5031558;28;20036;-40
2021/11/14 02:08:04;;;;;;;29.77;8.50;;;;;;;10.72;91.53;101791.31;5047765;28;20153;-40
2021/11/14 02:10:31;;;;;;;20.95;8.70;;;;;;;10.73;90.99;101795.69;5052762;28;20104;-40
2021/11/14 02:12:59;;;;;;;24.13;9.18;;;;;;;10.76;90.90;101797.22;5052682;28;20079;-40
2021/11/14 02:15:25;;;;;;;27.38;9.40;;;;;;;10.68;90.89;101794.47;5052565;28;20486;-40
2021/11/14 02:17:50;;;;;;;21.25;9.15;;;;;;;10.67;91.24;101796.34;5051679;28;20029;-40
2021/11/14 02:20:17;;;;;;;20.75;9.52;;;;;;;10.66;91.26;101797.31;5052153;28;20033;-40
2021/11/14 02:22:42;;;;;;;22.27;8.77;;;;;;;10.68;91.15;101811.47;5052500;28;20450;-40
2021/11/14 02:25:11;;;;;;;23.80;9.98;;;;;;;10.66;91.22;101810.78;5034162;28;20049;-39
2021/11/14 02:27:37;;;;;;;17.15;8.90;;;;;;;10.63;91.37;101803.03;5043406;28;20080;-39
2021/11/14 02:30:06;;;;;;;30.60;9.77;;;;;;;10.63;91.40;101812.97;5052444;28;20053;-39
2021/11/14 02:32:32;;;;;;;25.08;10.63;;;;;;;10.61;91.77;101810.44;5031948;28;20132;-39
2021/11/14 02:34:57;;;;;;;23.88;9.52;;;;;;;10.66;91.63;101818.03;5032076;28;20021;-40
2021/11/14 02:37:22;;;;;;;22.52;9.55;;;;;;;10.65;91.47;101825.25;5033524;28;20041;-39
2021/11/14 02:39:48;;;;;;;25.02;10.32;;;;;;;10.65;91.13;101822.56;5032649;28;20025;-40
2021/11/14 02:42:13;;;;;;;28.20;9.93;;;;;;;10.65;90.91;101827.09;5032560;28;20037;-40
2021/11/14 02:44:39;;;;;;;35.63;10.15;;;;;;;10.65;91.02;101827.09;5034146;28;20477;-39
2021/11/14 02:47:04;;;;;;;23.98;10.25;;;;;;;10.65;90.83;101829.81;5042030;28;20022;-39
2021/11/14 02:49:30;;;;;;;30.52;11.48;;;;;;;10.60;91.02;101832.97;5032302;28;20040;-40
2021/11/14 02:51:55;;;;;;;32.60;10.55;;;;;;;10.60;91.37;101835.66;5032501;28;20098;-40
2021/11/14 02:54:21;;;;;;;24.85;10.25;;;;;;;10.63;91.17;101829.94;5045843;28;20488;-39
2021/11/14 02:56:46;;;;;;;28.23;11.50;;;;;;;10.63;91.15;101837.19;5047268;28;20473;-40
2021/11/14 02:59:12;;;;;;;29.27;10.85;;;;;;;10.65;91.21;101835.19;5052480;28;20055;-40
2021/11/14 03:01:44;;;;;;;24.25;10.98;;;;;;;10.70;91.10;101835.56;5047114;28;20044;-40
2021/11/14 03:04:11;;;;;;;25.58;12.25;;;;;;;10.72;90.84;101834.41;5052350;28;20021;-39
2021/11/14 03:06:37;;;;;;;19.08;11.45;;;;;;;10.70;90.82;101838.25;5053282;28;20052;-40
2021/11/14 03:09:03;;;;;;;30.00;14.07;;;;;;;10.71;90.45;101832.69;5054505;28;20111;-40
2021/11/14 03:11:29;;;;;;;33.80;13.40;;;;;;;10.66;90.72;101840.41;5054900;28;20033;-40
2021/11/14 03:13:54;;;;;;;34.88;14.00;;;;;;;10.62;90.75;101832.81;5054588;28;20139;-39
2021/11/14 03:16:22;;;;;;;39.58;13.95;;;;;;;10.57;91.57;101841.34;5052133;28;20089;-39
2021/11/14 03:18:47;;;;;;;;;;;;;;;10.54;91.98;101847.91;5033048;28;20026;-39
2021/11/14 03:21:13;;;;;;;37.92;13.63;;;;;;;10.51;92.53;101837.44;5032117;28;20299;-40
2021/11/14 03:23:39;;;;;;;42.13;14.98;;;;;;;10.50;92.30;101849.19;5039467;28;20127;-40
2021/11/14 03:26:04;;;;;;;32.17;14.98;;;;;;;10.49;92.35;101852.06;5050982;28;20436;-40
2021/11/14 03:28:30;;;;;;;34.10;14.55;;;;;;;10.52;92.43;101857.97;5036435;28;20060;-40
2021/11/14 03:30:57;;;;;;;29.73;13.95;;;;;;;10.53;91.71;101869.56;5051348;28;20032;-39
2021/11/14 03:33:23;;;;;;;29.23;14.40;;;;;;;10.54;91.59;101864.03;5050569;28;20055;-40
2021/11/14 03:35:55;;;;;;;30.88;14.82;;;;;;;10.52;91.85;101870.59;5041951;28;20026;-40
2021/11/14 03:38:25;;;;;;;31.10;15.13;;;;;;;10.54;91.79;101869.44;5050817;28;20033;-39
2021/11/14 03:40:51;;;;;;;27.85;15.60;;;;;;;10.55;91.94;101872.97;5052155;28;20031;-39
2021/11/14 03:43:17;;;;;;;39.30;16.90;;;;;;;10.57;92.00;101875.50;5035931;28;20477;-40
2021/11/14 03:45:43;;;;;;;36.33;17.88;;;;;;;10.63;91.62;101869.50;5032386;28;20116;-40
2021/11/14 03:48:09;;;;;;;41.55;18.42;;;;;;;10.60;91.72;101878.72;5055151;28;20040;-40
2021/11/14 03:50:35;;;;;;;40.95;18.60;;;;;;;10.61;92.03;101875.03;5055443;28;20017;-39
2021/11/14 03:53:01;;;;;;;35.20;18.95;;;;;;;10.63;91.72;101878.41;5041271;28;20025;-39
2021/11/14 03:55:26;;;;;;;42.95;19.88;;;;;;;10.63;91.57;101875.72;5035694;28;20491;-39
2021/11/14 03:57:51;;;;;;;39.97;19.95;;;;;;;10.73;91.58;101883.69;5035374;28;20446;-40
2021/11/14 04:00:22;;;;;;;36.75;20.00;;;;;;;10.74;91.19;101888.94;5035581;28;20495;-40
2021/11/14 04:02:49;;;;;;;38.60;19.95;;;;;;;10.79;91.22;101887.59;5045767;28;20025;-39
2021/11/14 04:05:15;;;;;;;48.23;21.67;;;;;;;10.85;90.54;101895.91;5055011;28;20028;-39
2021/11/14 04:07:40;;;;;;;47.38;20.35;;;;;;;10.83;90.63;101892.53;5062607;28;20289;-40
2021/11/14 04:10:06;;;;;;;39.17;21.55;;;;;;;10.74;90.88;101898.84;5059212;28;20033;-40
2021/11/14 04:12:32;;;;;;;49.17;20.90;;;;;;;10.77;91.16;101901.25;5054078;28;20035;-40
2021/11/14 04:14:57;;;;;;;46.13;21.52;;;;;;;10.70;91.09;101905.56;5054843;28;20462;-39
2021/11/14 04:17:23;;;;;;;47.90;21.70;;;;;;;10.69;91.32;101910.09;5054702;28;20076;-40
2021/11/14 04:19:48;;;;;;;41.75;20.35;;;;;;;10.67;91.43;101905.88;5036325;28;20044;-39
2021/11/14 04:22:14;;;;;;;42.85;21.67;;;;;;;10.70;91.47;101910.94;5041828;28;20029;-39
2021/11/14 04:24:40;;;;;;;41.35;22.50;;;;;;;10.72;91.66;101914.34;5054740;28;20025;-40
2021/11/14 04:27:05;;;;;;;49.45;22.55;;;;;;;10.67;91.43;101913.97;5054553;28;20456;-40
2021/11/14 04:29:31;;;;;;;50.17;23.48;;;;;;;10.64;91.74;101916.97;5054831;28;20025;-40
2021/11/14 04:31:56;;;;;;;44.20;22.42;;;;;;;10.65;92.09;101918.66;5049909;28;20051;-40
2021/11/14 04:34:21;;;;;;;46.90;23.50;;;;;;;10.63;91.98;101916.09;5034603;28;20021;-40
2021/11/14 04:36:47;;;;;;;45.53;22.77;;;;;;;10.62;92.14;101925.19;5034484;28;20149;-40
2021/11/14 04:39:12;;;;;;;47.58;23.70;;;;;;;10.63;92.31;101918.78;5033350;28;20030;-39
2021/11/14 04:41:37;;;;;;;52.35;24.02;;;;;;;10.64;92.29;101928.56;5034408;28;20057;-39
2021/11/14 04:44:03;;;;;;;49.38;24.30;;;;;;;10.68;92.27;101929.94;5047279;28;20030;-40
2021/11/14 04:46:28;;;;;;;54.58;23.90;;;;;;;10.66;92.21;101931.09;5034609;28;20066;-40
2021/11/14 04:48:53;;;;;;;60.40;23.35;;;;;;;10.67;92.30;101939.03;5035382;28;20076;-40
2021/11/14 04:51:19;;;;;;;55.75;24.83;;;;;;;10.62;92.46;101933.25;5037400;28;20033;-39
2021/11/14 04:53:45;;;;;;;51.25;23.55;;;;;;;10.65;92.55;101938.31;5035327;28;20033;-39
2021/11/14 04:56:10;;;;;;;56.45;24.17;;;;;;;10.65;92.86;101941.03;5039092;28;20523;-40
2021/11/14 04:58:35;;;;;;;52.20;24.92;;;;;;;10.64;92.55;101950.09;5034595;28;20040;-41
2021/11/14 05:01:01;;;;;;;62.53;26.10;;;;;;;10.66;92.57;101945.38;5046254;28;20109;-41
2021/11/14 05:03:26;;;;;;;63.00;26.40;;;;;;;10.61;92.42;101945.03;5034192;28;20104;-40
2021/11/14 05:05:56;;;;;;;55.22;25.42;;;;;;;10.63;92.59;101943.00;5037862;28;20017;-41
2021/11/14 05:08:21;;;;;;;56.78;24.73;;;;;;;10.63;92.41;101948.41;5053720;28;20068;-40
2021/11/14 05:10:49;;;;;;;60.03;25.65;;;;;;;10.66;91.83;101955.31;5053560;28;20049;-40
2021/11/14 05:13:15;;;;;;;54.08;24.52;;;;;;;10.68;91.69;101956.03;5042296;28;20037;-40
2021/11/14 05:15:40;;;;;;;59.35;24.38;;;;;;;10.64;91.12;101955.50;5033889;28;20484;-40
2021/11/14 05:18:05;;;;;;;53.85;24.60;;;;;;;10.64;91.30;101958.19;5033600;28;20030;-40
2021/11/14 05:20:32;;;;;;;63.47;25.20;;;;;;;10.57;91.37;101959.78;5035693;28;20433;-41
2021/11/14 05:22:57;;;;;;;58.28;24.40;;;;;;;10.54;91.88;101960.13;5044296;28;20025;-40
2021/11/14 05:25:22;;;;;;;62.88;26.15;;;;;;;10.51;91.59;101960.44;5051538;28;20388;-40
2021/11/14 05:27:48;;;;;;;56.10;24.65;;;;;;;10.52;92.06;101967.50;5053636;28;20119;-40
2021/11/14 05:30:13;;;;;;;51.97;23.95;;;;;;;10.51;91.79;101955.88;5052263;28;20116;-40
2021/11/14 05:32:39;;;;;;;57.78;24.60;;;;;;;10.45;91.93;101966.41;5042525;28;20029;-40
2021/11/14 05:35:05;;;;;;;60.30;25.85;;;;;;;10.39;92.39;101972.41;5050707;28;20029;-39
2021/11/14 05:37:31;;;;;;;57.47;24.38;;;;;;;10.42;92.25;101978.31;5048906;28;20091;-39
2021/11/14 05:39:57;;;;;;;58.63;24.60;;;;;;;10.42;92.21;101975.63;5033120;28;20488;-39
2021/11/14 05:42:23;;;;;;;59.22;23.65;;;;;;;10.45;92.08;101983.41;5033223;28;20029;-39
2021/11/14 05:44:48;;;;;;;52.38;23.13;;;;;;;10.47;91.77;101989.47;5033158;28;20027;-39
2021/11/14 05:47:14;;;;;;;56.25;23.13;;;;;;;10.49;91.62;101978.56;5032820;28;20029;-40
2021/11/14 05:49:39;;;;;;;55.45;22.55;;;;;;;10.42;91.59;101988.25;5035195;28;20033;-39
2021/11/14 05:52:05;;;;;;;57.20;24.83;;;;;;;10.39;92.12;101994.78;5047384;28;20028;-40
2021/11/14 05:54:30;;;;;;;56.00;23.75;;;;;;;10.39;91.76;101993.94;5052013;28;20039;-41
2021/11/14 05:56:57;;;;;;;52.85;22.40;;;;;;;10.41;91.92;102002.72;5033026;28;20060;-41
2021/11/14 06:02:05;;;;;;;50.42;21.35;;;;;;;10.39;91.63;102005.53;5047974;28;20072;-40
2021/11/14 06:06:56;;;;;;;61.85;22.55;;;;;;;10.37;91.59;102022.84;5044114;28;20088;-40
2021/11/14 06:09:21;;;;;;;51.92;21.13;;;;;;;10.39;91.28;102016.31;5051786;28;20025;-41
2021/11/14 06:11:47;;;;;;;47.47;20.50;;;;;;;10.37;91.34;102022.84;5047834;28;20045;-41
2021/11/14 06:14:12;;;;;;;47.85;20.27;;;;;;;10.39;91.75;102023.53;5032848;28;20029;-41
2021/11/14 06:16:37;;;;;;;53.33;20.50;;;;;;;10.36;90.77;102022.00;5042739;28;20025;-40
2021/11/14 06:19:03;;;;;;;47.50;20.42;;;;;;;10.37;90.49;102026.38;5052747;28;20025;-40
2021/11/14 06:21:28;;;;;;;44.95;20.10;;;;;;;10.38;90.53;102027.25;5046356;28;20091;-40
2021/11/14 06:23:53;;;;;;;50.95;21.25;;;;;;;10.33;89.97;102027.69;5039127;28;20033;-40
2021/11/14 06:26:19;;;;;;;51.95;20.50;;;;;;;10.30;90.11;102038.75;5047880;28;20084;-42
2021/11/14 06:28:45;;;;;;;47.58;20.60;;;;;;;10.31;89.80;102041.28;5034064;28;20038;-40
2021/11/14 06:31:12;;;;;;;47.03;20.50;;;;;;;10.30;89.73;102053.06;5029747;28;20049;-40
2021/11/14 06:33:37;;;;;;;43.75;19.67;;;;;;;10.28;89.87;102051.50;5042262;28;20029;-40
2021/11/14 06:36:03;;;;;;;52.22;20.95;;;;;;;10.25;89.65;102052.63;5049461;28;20373;-40
2021/11/14 06:38:28;;;;;;;47.67;20.13;;;;;;;10.20;90.24;102060.28;5049461;28;20043;-39
2021/11/14 06:40:54;;;;;;;47.53;20.23;;;;;;;10.20;90.27;102051.38;5033727;28;20052;-41
2021/11/14 06:43:19;;;;;;;49.50;21.52;;;;;;;10.22;90.44;102068.22;5028281;28;20480;-41
2021/11/14 06:45:45;;;;;;;50.22;21.50;;;;;;;10.21;89.94;102061.97;5041790;28;20468;-40
2021/11/14 06:48:10;;;;;;;49.22;21.38;;;;;;;10.18;90.04;102074.91;5048223;28;20504;-40
2021/11/14 06:50:36;;;;;;;50.78;21.92;;;;;;;10.15;89.99;102080.56;5049686;28;20040;-41
2021/11/14 06:53:02;;;;;;;58.08;23.77;;;;;;;10.13;89.83;102082.56;5060798;28;20029;-39
2021/11/14 06:55:27;;;;;;;57.97;22.65;;;;;;;10.06;90.12;102090.41;5049291;28;20064;-42
2021/11/14 06:57:53;;;;;;;57.85;23.73;;;;;;;10.02;90.21;102089.81;5049307;28;20067;-42
2021/11/14 07:00:21;;;;;;;61.60;24.27;;;;;;;10.01;90.44;102100.75;5048941;28;20029;-39
2021/11/14 07:02:47;;;;;;;66.82;25.30;;;;;;;9.96;90.40;102097.66;5049343;28;20029;-41
2021/11/14 07:05:13;;;;;;;66.97;26.48;;;;;;;9.96;90.35;102097.66;5049120;28;20116;-40
2021/11/14 07:07:39;;;;;;;65.30;25.45;;;;;;;9.94;90.18;102099.63;5048870;28;20044;-41
2021/11/14 07:10:05;;;;;;;70.85;26.10;;;;;;;9.89;90.43;102100.06;5029596;28;20044;-40
2021/11/14 07:12:31;;;;;;;72.55;27.23;;;;;;;9.85;90.78;102114.81;5041314;28;20455;-40
2021/11/14 07:14:56;;;;;;;69.72;26.70;;;;;;;9.86;91.06;102119.19;5053236;28;20056;-41
2021/11/14 07:17:22;;;;;;;77.53;25.77;;;;;;;9.81;91.13;102125.00;5049986;28;20414;-40
2021/11/14 07:19:48;;;;;;;75.80;26.90;;;;;;;9.83;91.34;102133.75;5061754;28;20082;-41
2021/11/14 07:22:14;;;;;;;78.70;26.45;;;;;;;9.87;91.39;102131.63;5072724;28;20068;-40
2021/11/14 07:24:39;;;;;;;73.28;27.98;;;;;;;9.93;90.86;102149.03;5066606;28;20110;-41
2021/11/14 07:27:05;;;;;;;75.00;28.02;;;;;;;9.97;90.76;102147.75;5052518;28;20053;-40
2021/11/14 07:29:32;;;;;;;72.05;27.25;;;;;;;10.02;90.11;102148.16;5053284;28;20484;-40
2021/11/14 07:31:57;;;;;;;70.00;26.23;;;;;;;10.04;90.19;102151.56;5054567;28;20035;-40
2021/11/14 07:34:24;;;;;;;71.32;27.58;;;;;;;10.04;90.01;102148.84;5072892;28;20028;-39
2021/11/14 07:36:49;;;;;;;73.68;28.10;;;;;;;10.03;89.83;102157.91;5071582;28;20051;-41
2021/11/14 07:39:14;;;;;;;75.20;27.58;;;;;;;10.06;89.66;102163.84;5073008;28;20016;-41
2021/11/14 07:41:40;;;;;;;68.82;27.75;;;;;;;10.07;89.86;102167.38;5071414;28;20516;-41
2021/11/14 07:44:05;;;;;;;67.75;27.55;;;;;;;10.09;89.34;102166.25;5072691;28;20033;-40
2021/11/14 07:46:31;;;;;;;68.43;26.38;;;;;;;10.10;89.24;102169.78;5071153;28;20111;-41
2021/11/14 07:48:56;;;;;;;75.28;28.95;;;;;;;10.11;89.39;102176.88;5072594;28;20044;-39
2021/11/14 07:51:23;;;;;;;71.05;28.50;;;;;;;10.15;88.81;102180.13;5055408;28;20460;-40
2021/11/14 07:53:48;;;;;;;66.45;27.25;;;;;;;10.14;88.98;102179.28;5052654;28;20048;-41
2021/11/14 07:56:14;;;;;;;71.15;27.95;;;;;;;10.14;88.71;102184.66;5052351;28;20025;-40
2021/11/14 07:58:40;;;;;;;59.83;25.85;;;;;;;10.17;88.79;102195.13;5052431;28;20161;-41
2021/11/14 08:01:05;;;;;;;66.50;27.45;;;;;;;10.19;89.00;102197.63;5051666;28;20024;-39
2021/11/14 08:03:33;;;;;;;63.67;26.83;;;;;;;10.15;88.68;102194.41;5052183;28;20035;-41
2021/11/14 08:06:02;;;;;;;66.25;25.85;;;;;;;10.13;88.86;102203.63;5067109;28;20036;-41
2021/11/14 08:08:28;;;;;;;70.53;27.23;;;;;;;10.11;88.81;102198.41;5070679;28;20509;-39
2021/11/14 08:10:54;;;;;;;72.05;28.02;;;;;;;10.10;89.14;102210.13;5072220;28;20154;-40
2021/11/14 08:13:20;;;;;;;65.85;25.88;;;;;;;10.10;88.75;102210.13;5046786;28;20741;-42
2021/11/14 08:15:46;;;;;;;71.32;26.85;;;;;;;10.09;88.53;102211.13;5045367;28;20140;-40
2021/11/14 08:18:12;;;;;;;62.95;26.35;;;;;;;10.07;88.63;102215.81;5033143;28;20202;-40
2021/11/14 08:20:37;;;;;;;68.93;29.02;;;;;;;10.06;88.84;102216.81;5034379;28;20029;-41
2021/11/14 08:23:04;;;;;;;67.25;28.38;;;;;;;10.06;88.62;102214.97;5033648;28;20022;-41
2021/11/14 08:25:30;;;;;;;69.68;28.35;;;;;;;10.10;88.24;102215.50;5034548;28;20116;-39
2021/11/14 08:27:56;;;;;;;72.90;28.02;;;;;;;10.08;88.05;102217.50;5052461;28;20187;-38
2021/11/14 08:30:21;;;;;;;74.72;29.70;;;;;;;10.08;88.21;102220.19;5047666;28;20028;-41
2021/11/14 08:32:48;;;;;;;71.82;29.45;;;;;;;10.14;87.74;102211.56;5036388;28;20021;-40
2021/11/14 08:35:14;;;;;;;71.60;29.55;;;;;;;10.21;87.62;102223.41;5051429;28;20524;-39
2021/11/14 08:37:40;;;;;;;76.28;31.15;;;;;;;10.23;87.60;102226.81;5047569;28;20021;-40
2021/11/14 08:40:07;;;;;;;73.03;29.63;;;;;;;10.28;87.52;102224.56;5031537;28;20577;-41
2021/11/14 08:42:33;;;;;;;64.80;29.02;;;;;;;10.32;86.93;102225.09;5031459;28;20036;-40
2021/11/14 08:44:58;;;;;;;71.47;28.73;;;;;;;10.28;87.28;102226.41;5036250;28;20104;-41
2021/11/14 08:47:24;;;;;;;70.05;30.30;;;;;;;10.32;87.60;102235.88;5039776;28;20194;-40
2021/11/14 08:49:49;;;;;;;73.65;29.38;;;;;;;10.31;87.30;102239.56;5051768;28;20120;-41
2021/11/14 08:52:14;;;;;;;72.20;29.80;;;;;;;10.38;87.66;102237.16;5035111;28;20510;-40
2021/11/14 08:54:40;;;;;;;76.13;31.45;;;;;;;10.46;86.76;102237.25;5031542;28;20038;-39
2021/11/14 08:57:06;;;;;;;77.30;33.78;;;;;;;10.44;86.54;102240.09;5031128;28;20036;-39
2021/11/14 08:59:31;;;;;;;76.65;31.65;;;;;;;10.42;86.71;102239.38;5031271;28;20029;-38
2021/11/14 09:02:00;;;;;;;74.78;31.65;;;;;;;10.36;86.97;102239.97;5031023;28;20518;-38
2021/11/14 09:04:26;;;;;;;79.30;33.22;;;;;;;10.30;87.46;102245.97;5047567;28;20033;-40
2021/11/14 09:06:53;;;;;;;75.90;33.13;;;;;;;10.32;87.46;102247.50;5050841;28;20035;-39
2021/11/14 09:09:19;;;;;;;80.72;33.50;;;;;;;10.40;87.08;102248.59;5050840;28;20037;-39
2021/11/14 09:11:45;;;;;;;76.90;32.15;;;;;;;10.44;86.53;102255.41;5050642;28;20032;-39
2021/11/14 09:14:13;;;;;;;80.45;33.97;;;;;;;10.47;86.66;102249.72;5050847;28;20025;-40
2021/11/14 09:16:39;;;;;;;81.88;33.83;;;;;;;10.57;86.20;102255.06;5050586;28;20027;-40
2021/11/14 09:19:06;;;;;;;76.85;32.95;;;;;;;10.63;85.69;102258.00;5050930;28;20024;-40
2021/11/14 09:21:31;;;;;;;77.93;31.98;;;;;;;10.62;85.33;102256.31;5050835;28;20056;-40
2021/11/14 09:23:57;;;;;;;80.35;33.17;;;;;;;10.64;85.14;102257.03;5050969;28;20060;-40
2021/11/14 09:26:22;;;;;;;84.20;33.75;;;;;;;10.65;85.53;102258.72;5045026;28;20081;-39
2021/11/14 09:28:48;;;;;;;78.60;32.53;;;;;;;10.66;84.99;102260.41;5030501;28;20528;-39
2021/11/14 09:31:13;;;;;;;80.70;33.83;;;;;;;10.73;85.22;102266.91;5030470;28;20485;-38
2021/11/14 09:33:39;;;;;;;77.43;34.33;;;;;;;10.71;84.99;102273.44;5030526;28;20324;-39
2021/11/14 09:36:06;;;;;;;75.95;33.78;;;;;;;10.68;85.36;102279.97;5030706;28;20025;-40
2021/11/14 09:38:32;;;;;;;76.63;33.03;;;;;;;10.60;84.64;102277.16;5029056;28;20025;-40
2021/11/14 09:41:03;;;;;;;76.35;32.90;;;;;;;10.62;85.23;102285.94;5046718;28;20029;-40
2021/11/14 09:43:28;;;;;;;78.18;32.80;;;;;;;10.64;85.19;102292.03;5050209;28;20033;-39
2021/11/14 09:45:54;;;;;;;74.82;34.20;;;;;;;10.66;84.90;102287.31;5049608;28;20250;-42
2021/11/14 09:48:21;;;;;;;81.45;32.33;;;;;;;10.62;84.75;102291.31;5050263;28;20025;-41
2021/11/14 09:50:51;;;;;;;73.90;31.95;;;;;;;10.58;85.06;102292.59;5050496;28;20248;-40
2021/11/14 09:53:17;;;;;;;79.13;33.90;;;;;;;10.53;85.20;102297.56;5050069;28;20033;-40
2021/11/14 09:55:42;;;;;;;72.72;32.20;;;;;;;10.51;85.65;102311.19;5050043;28;20500;-40
2021/11/14 09:58:08;;;;;;;78.28;33.45;;;;;;;10.52;85.67;102306.66;5050378;28;20150;-39
2021/11/14 10:00:35;;;;;;;75.07;32.90;;;;;;;10.52;85.49;102309.34;5051234;28;20021;-39
2021/11/14 10:03:01;;;;;;;71.78;32.35;;;;;;;10.49;85.29;102318.56;5051257;28;20060;-40
2021/11/14 10:05:26;;;;;;;77.57;32.72;;;;;;;10.50;85.59;102308.63;5052936;28;20056;-40
2021/11/14 10:07:57;;;;;;;65.57;30.33;;;;;;;10.60;85.17;102308.63;5052655;28;20075;-39
2021/11/14 10:10:25;;;;;;;63.55;30.08;;;;;;;10.67;84.19;102312.44;5052536;28;20437;-39
2021/11/14 10:12:50;;;;;;;72.55;31.13;;;;;;;10.66;84.36;102319.63;5052622;28;20095;-40
2021/11/14 10:15:18;;;;;;;71.15;32.08;;;;;;;10.61;84.85;102315.69;5052644;28;20420;-40
2021/11/14 10:17:59;;;;;;;;;;;;;;;10.62;84.91;102318.25;5054066;28;20020;-40
2021/11/14 10:20:28;;;;;;;68.30;29.45;;;;;;;10.65;84.68;102319.81;5052156;28;19919;-39
2021/11/14 10:23:00;;;;;;;59.08;26.73;;;;;;;10.66;84.59;102314.25;5072524;28;20031;-40
2021/11/14 10:25:27;;;;;;;66.28;29.17;;;;;;;10.80;83.77;102326.41;5072391;28;20032;-39
2021/11/14 10:27:55;;;;;;;61.75;28.02;;;;;;;10.84;83.50;102319.72;5072154;28;20049;-39
2021/11/14 10:30:27;;;;;;;;;;;;;;;10.83;83.45;102322.59;5072812;28;20364;-39
2021/11/14 10:32:54;;;;;;;60.15;27.27;;;;;;;10.85;83.11;102331.34;5072339;28;19904;-39
2021/11/14 10:35:19;;;;;;;56.77;26.63;;;;;;;10.84;83.12;102330.50;5072374;28;20126;-39
2021/11/14 10:37:45;;;;;;;56.80;26.27;;;;;;;10.87;83.04;102337.44;5054071;28;20475;-41
2021/11/14 10:40:31;;;;;;;60.95;28.50;;;;;;;10.84;83.83;102340.44;5059696;28;20028;-41
2021/11/14 10:42:58;;;;;;;61.88;28.40;;;;;;;10.90;83.43;102338.00;5048690;28;20032;-41
2021/11/14 10:45:25;;;;;;;56.55;26.60;;;;;;;10.92;83.21;102340.53;5049076;28;20024;-40
2021/11/14 10:47:59;;;;;;;60.40;27.90;;;;;;;10.90;82.98;102342.53;5048361;28;20387;-42
2021/11/14 10:50:33;;;;;;;58.78;27.98;;;;;;;10.90;83.26;102354.19;5049222;28;20480;-41
2021/11/14 10:53:00;;;;;;;61.42;27.02;;;;;;;10.89;83.03;102357.00;5048348;28;20067;-41
2021/11/14 10:55:30;;;;;;;58.67;25.70;;;;;;;10.81;82.25;102365.81;5050515;28;20033;-41
2021/11/14 10:57:55;;;;;;;57.10;26.10;;;;;;;10.74;82.26;102360.19;5047485;28;20025;-41
2021/11/14 11:00:23;;;;;;;58.63;25.63;;;;;;;10.71;82.59;102364.97;5047022;28;20036;-40
2021/11/14 11:02:48;;;;;;;54.83;24.77;;;;;;;10.71;82.08;102360.44;5049516;28;20377;-40
2021/11/14 11:05:14;;;;;;;53.30;23.20;;;;;;;10.66;82.65;102362.72;5038401;28;20342;-39
2021/11/14 11:07:41;;;;;;;54.30;23.90;;;;;;;10.68;82.57;102360.75;5035862;28;20025;-39
2021/11/14 11:10:07;;;;;;;53.20;23.83;;;;;;;10.74;82.37;102360.19;5036228;28;20030;-40
2021/11/14 11:12:34;;;;;;;52.33;24.48;;;;;;;10.78;82.58;102366.09;5035982;28;20473;-40